sensor_id;sensor_type;location;lat;lon;timestamp;temperature;humidity
61016;DHT22;46902;52.920;6.536;2023-07-08T00:00:39;19.40;78.70
61016;DHT22;46902;52.920;6.536;2023-07-08T00:03:05;19.40;78.70
61016;DHT22;46902;52.920;6.536;2023-07-08T00:05:31;19.40;79.00
61016;DHT22;46902;52.920;6.536;2023-07-08T00:07:57;19.40;79.30
61016;DHT22;46902;52.920;6.536;2023-07-08T00:10:26;19.40;79.60
61016;DHT22;46902;52.920;6.536;2023-07-08T00:12:54;19.30;79.90
61016;DHT22;46902;52.920;6.536;2023-07-08T00:15:29;19.30;79.90
61016;DHT22;46902;52.920;6.536;2023-07-08T00:17:54;19.30;80.20
61016;DHT22;46902;52.920;6.536;2023-07-08T00:23:05;19.20;80.50
61016;DHT22;46902;52.920;6.536;2023-07-08T00:25:32;19.20;81.60
61016;DHT22;46902;52.920;6.536;2023-07-08T00:27:58;19.10;81.30
61016;DHT22;46902;52.920;6.536;2023-07-08T00:30:29;19.10;81.60
61016;DHT22;46902;52.920;6.536;2023-07-08T00:32:57;19.10;81.80
61016;DHT22;46902;52.920;6.536;2023-07-08T00:35:28;19.10;81.80
61016;DHT22;46902;52.920;6.536;2023-07-08T00:37:55;19.00;82.00
61016;DHT22;46902;52.920;6.536;2023-07-08T00:40:28;19.00;81.90
61016;DHT22;46902;52.920;6.536;2023-07-08T00:42:56;19.00;82.30
61016;DHT22;46902;52.920;6.536;2023-07-08T00:48:02;19.00;82.50
61016;DHT22;46902;52.920;6.536;2023-07-08T00:50:30;18.90;82.70
61016;DHT22;46902;52.920;6.536;2023-07-08T00:55:43;18.90;83.10
61016;DHT22;46902;52.920;6.536;2023-07-08T00:58:08;18.80;83.50
61016;DHT22;46902;52.920;6.536;2023-07-08T01:00:34;18.80;83.60
61016;DHT22;46902;52.920;6.536;2023-07-08T01:02:59;18.80;83.70
61016;DHT22;46902;52.920;6.536;2023-07-08T01:05:29;18.80;84.20
61016;DHT22;46902;52.920;6.536;2023-07-08T01:07:59;18.70;84.30
61016;DHT22;46902;52.920;6.536;2023-07-08T01:10:36;18.80;84.60
61016;DHT22;46902;52.920;6.536;2023-07-08T01:13:06;18.70;84.70
61016;DHT22;46902;52.920;6.536;2023-07-08T01:15:38;18.70;84.90
61016;DHT22;46902;52.920;6.536;2023-07-08T01:18:05;18.70;85.00
61016;DHT22;46902;52.920;6.536;2023-07-08T01:20:30;18.60;85.20
61016;DHT22;46902;52.920;6.536;2023-07-08T01:22:56;18.60;85.40
61016;DHT22;46902;52.920;6.536;2023-07-08T01:25:22;18.60;85.50
61016;DHT22;46902;52.920;6.536;2023-07-08T01:27:52;18.50;85.70
61016;DHT22;46902;52.920;6.536;2023-07-08T01:30:18;18.50;86.00
61016;DHT22;46902;52.920;6.536;2023-07-08T01:32:55;18.50;86.20
61016;DHT22;46902;52.920;6.536;2023-07-08T01:35:23;18.50;86.60
61016;DHT22;46902;52.920;6.536;2023-07-08T01:37:49;18.40;86.70
61016;DHT22;46902;52.920;6.536;2023-07-08T01:42:57;18.40;87.30
61016;DHT22;46902;52.920;6.536;2023-07-08T01:45:25;18.40;88.30
61016;DHT22;46902;52.920;6.536;2023-07-08T01:47:57;18.30;87.90
61016;DHT22;46902;52.920;6.536;2023-07-08T01:50:25;18.30;88.40
61016;DHT22;46902;52.920;6.536;2023-07-08T01:52:52;18.20;88.70
61016;DHT22;46902;52.920;6.536;2023-07-08T01:55:25;18.20;89.20
61016;DHT22;46902;52.920;6.536;2023-07-08T01:57:51;18.20;89.20
61016;DHT22;46902;52.920;6.536;2023-07-08T02:00:18;18.10;89.70
61016;DHT22;46902;52.920;6.536;2023-07-08T02:02:44;18.00;90.00
61016;DHT22;46902;52.920;6.536;2023-07-08T02:05:09;18.00;90.10
61016;DHT22;46902;52.920;6.536;2023-07-08T02:07:35;18.00;90.10
61016;DHT22;46902;52.920;6.536;2023-07-08T02:10:00;18.00;90.20
61016;DHT22;46902;52.920;6.536;2023-07-08T02:12:26;18.00;90.30
61016;DHT22;46902;52.920;6.536;2023-07-08T02:14:51;18.00;90.30
61016;DHT22;46902;52.920;6.536;2023-07-08T02:17:17;18.00;90.40
61016;DHT22;46902;52.920;6.536;2023-07-08T02:19:43;18.00;90.50
61016;DHT22;46902;52.920;6.536;2023-07-08T02:22:09;17.90;90.70
61016;DHT22;46902;52.920;6.536;2023-07-08T02:24:35;17.90;90.80
61016;DHT22;46902;52.920;6.536;2023-07-08T02:27:01;17.80;90.90
61016;DHT22;46902;52.920;6.536;2023-07-08T02:29:26;17.80;91.10
61016;DHT22;46902;52.920;6.536;2023-07-08T02:31:52;17.80;91.10
61016;DHT22;46902;52.920;6.536;2023-07-08T02:34:18;17.70;91.20
61016;DHT22;46902;52.920;6.536;2023-07-08T02:36:44;17.70;91.40
61016;DHT22;46902;52.920;6.536;2023-07-08T02:39:10;17.70;91.40
61016;DHT22;46902;52.920;6.536;2023-07-08T02:41:36;17.70;91.50
61016;DHT22;46902;52.920;6.536;2023-07-08T02:44:02;17.70;91.60
61016;DHT22;46902;52.920;6.536;2023-07-08T02:46:27;17.60;91.80
61016;DHT22;46902;52.920;6.536;2023-07-08T02:48:53;17.60;91.80
61016;DHT22;46902;52.920;6.536;2023-07-08T02:51:19;17.60;91.90
61016;DHT22;46902;52.920;6.536;2023-07-08T02:53:44;17.50;92.00
61016;DHT22;46902;52.920;6.536;2023-07-08T02:56:10;17.50;92.10
61016;DHT22;46902;52.920;6.536;2023-07-08T02:58:36;17.50;92.40
61016;DHT22;46902;52.920;6.536;2023-07-08T03:01:01;17.40;92.50
61016;DHT22;46902;52.920;6.536;2023-07-08T03:03:27;17.40;92.70
61016;DHT22;46902;52.920;6.536;2023-07-08T03:06:04;17.40;92.80
61016;DHT22;46902;52.920;6.536;2023-07-08T03:08:31;17.30;92.90
61016;DHT22;46902;52.920;6.536;2023-07-08T03:10:59;17.30;93.10
61016;DHT22;46902;52.920;6.536;2023-07-08T03:13:26;17.30;93.40
61016;DHT22;46902;52.920;6.536;2023-07-08T03:15:52;17.30;93.10
61016;DHT22;46902;52.920;6.536;2023-07-08T03:18:17;17.20;93.20
61016;DHT22;46902;52.920;6.536;2023-07-08T03:20:43;17.20;93.40
61016;DHT22;46902;52.920;6.536;2023-07-08T03:23:13;17.20;93.60
61016;DHT22;46902;52.920;6.536;2023-07-08T03:25:39;17.20;93.80
61016;DHT22;46902;52.920;6.536;2023-07-08T03:28:05;17.10;93.80
61016;DHT22;46902;52.920;6.536;2023-07-08T03:30:38;17.20;93.90
61016;DHT22;46902;52.920;6.536;2023-07-08T03:33:03;17.10;94.00
61016;DHT22;46902;52.920;6.536;2023-07-08T03:35:29;17.10;94.20
61016;DHT22;46902;52.920;6.536;2023-07-08T03:37:55;17.10;94.20
61016;DHT22;46902;52.920;6.536;2023-07-08T03:40:20;17.10;94.30
61016;DHT22;46902;52.920;6.536;2023-07-08T03:42:46;17.10;94.40
61016;DHT22;46902;52.920;6.536;2023-07-08T03:45:11;17.00;94.40
61016;DHT22;46902;52.920;6.536;2023-07-08T03:47:37;17.00;94.50
61016;DHT22;46902;52.920;6.536;2023-07-08T03:50:03;17.10;94.70
61016;DHT22;46902;52.920;6.536;2023-07-08T03:52:28;17.10;94.80
61016;DHT22;46902;52.920;6.536;2023-07-08T03:54:54;17.00;94.70
61016;DHT22;46902;52.920;6.536;2023-07-08T03:57:19;17.10;94.80
61016;DHT22;46902;52.920;6.536;2023-07-08T03:59:46;17.00;94.90
61016;DHT22;46902;52.920;6.536;2023-07-08T04:02:12;17.10;95.00
61016;DHT22;46902;52.920;6.536;2023-07-08T04:04:38;17.10;95.00
61016;DHT22;46902;52.920;6.536;2023-07-08T04:07:05;17.00;95.10
61016;DHT22;46902;52.920;6.536;2023-07-08T04:09:30;17.10;95.10
61016;DHT22;46902;52.920;6.536;2023-07-08T04:11:56;17.10;95.10
61016;DHT22;46902;52.920;6.536;2023-07-08T04:14:23;17.10;95.00
61016;DHT22;46902;52.920;6.536;2023-07-08T04:16:59;17.10;95.20
61016;DHT22;46902;52.920;6.536;2023-07-08T04:19:25;17.20;95.10
61016;DHT22;46902;52.920;6.536;2023-07-08T04:21:52;17.20;95.30
61016;DHT22;46902;52.920;6.536;2023-07-08T04:24:18;17.20;95.20
61016;DHT22;46902;52.920;6.536;2023-07-08T04:26:46;17.20;95.30
61016;DHT22;46902;52.920;6.536;2023-07-08T04:29:14;17.20;95.20
61016;DHT22;46902;52.920;6.536;2023-07-08T04:31:40;17.30;95.20
61016;DHT22;46902;52.920;6.536;2023-07-08T04:34:07;17.30;95.20
61016;DHT22;46902;52.920;6.536;2023-07-08T04:36:33;17.30;95.20
61016;DHT22;46902;52.920;6.536;2023-07-08T04:38:59;17.30;95.30
61016;DHT22;46902;52.920;6.536;2023-07-08T04:41:25;17.30;95.20
61016;DHT22;46902;52.920;6.536;2023-07-08T04:43:52;17.40;95.20
61016;DHT22;46902;52.920;6.536;2023-07-08T04:46:40;17.40;95.20
61016;DHT22;46902;52.920;6.536;2023-07-08T04:49:07;17.40;95.20
61016;DHT22;46902;52.920;6.536;2023-07-08T04:51:35;17.40;95.20
61016;DHT22;46902;52.920;6.536;2023-07-08T04:54:01;17.50;95.20
61016;DHT22;46902;52.920;6.536;2023-07-08T04:56:42;17.50;95.30
61016;DHT22;46902;52.920;6.536;2023-07-08T04:59:13;17.60;95.40
61016;DHT22;46902;52.920;6.536;2023-07-08T05:01:39;17.60;95.20
61016;DHT22;46902;52.920;6.536;2023-07-08T05:04:05;17.60;95.10
61016;DHT22;46902;52.920;6.536;2023-07-08T05:06:33;17.70;95.20
61016;DHT22;46902;52.920;6.536;2023-07-08T05:08:59;17.70;95.20
61016;DHT22;46902;52.920;6.536;2023-07-08T05:11:24;17.80;95.10
61016;DHT22;46902;52.920;6.536;2023-07-08T05:13:50;17.80;94.90
61016;DHT22;46902;52.920;6.536;2023-07-08T05:16:16;17.90;94.80
61016;DHT22;46902;52.920;6.536;2023-07-08T05:18:42;17.90;94.70
61016;DHT22;46902;52.920;6.536;2023-07-08T05:21:09;17.90;94.60
61016;DHT22;46902;52.920;6.536;2023-07-08T05:23:35;18.00;94.50
61016;DHT22;46902;52.920;6.536;2023-07-08T05:26:02;18.10;94.20
61016;DHT22;46902;52.920;6.536;2023-07-08T05:28:29;18.10;93.90
61016;DHT22;46902;52.920;6.536;2023-07-08T05:30:55;18.20;93.80
61016;DHT22;46902;52.920;6.536;2023-07-08T05:33:22;18.30;93.70
61016;DHT22;46902;52.920;6.536;2023-07-08T05:35:48;18.40;93.60
61016;DHT22;46902;52.920;6.536;2023-07-08T05:38:13;18.40;93.40
61016;DHT22;46902;52.920;6.536;2023-07-08T05:40:39;18.60;93.30
61016;DHT22;46902;52.920;6.536;2023-07-08T05:43:04;18.60;93.00
61016;DHT22;46902;52.920;6.536;2023-07-08T05:45:30;18.70;92.90
61016;DHT22;46902;52.920;6.536;2023-07-08T05:47:56;18.70;92.80
61016;DHT22;46902;52.920;6.536;2023-07-08T05:50:21;18.90;92.60
61016;DHT22;46902;52.920;6.536;2023-07-08T05:52:47;18.90;92.30
61016;DHT22;46902;52.920;6.536;2023-07-08T05:55:13;19.00;92.30
61016;DHT22;46902;52.920;6.536;2023-07-08T05:57:38;19.10;92.10
61016;DHT22;46902;52.920;6.536;2023-07-08T06:00:05;19.10;91.80
61016;DHT22;46902;52.920;6.536;2023-07-08T06:02:31;19.20;91.80
61016;DHT22;46902;52.920;6.536;2023-07-08T06:04:57;19.30;91.60
61016;DHT22;46902;52.920;6.536;2023-07-08T06:07:22;19.30;91.60
61016;DHT22;46902;52.920;6.536;2023-07-08T06:09:48;19.40;91.50
61016;DHT22;46902;52.920;6.536;2023-07-08T06:12:13;19.40;91.40
61016;DHT22;46902;52.920;6.536;2023-07-08T06:14:39;19.50;91.20
61016;DHT22;46902;52.920;6.536;2023-07-08T06:17:05;19.50;91.00
61016;DHT22;46902;52.920;6.536;2023-07-08T06:19:31;19.60;91.00
61016;DHT22;46902;52.920;6.536;2023-07-08T06:21:57;19.70;90.80
61016;DHT22;46902;52.920;6.536;2023-07-08T06:24:23;19.80;90.70
61016;DHT22;46902;52.920;6.536;2023-07-08T06:26:49;19.80;90.50
61016;DHT22;46902;52.920;6.536;2023-07-08T06:29:14;19.90;90.20
61016;DHT22;46902;52.920;6.536;2023-07-08T06:31:41;20.00;90.30
61016;DHT22;46902;52.920;6.536;2023-07-08T06:34:07;20.10;90.20
61016;DHT22;46902;52.920;6.536;2023-07-08T06:36:33;20.20;90.00
61016;DHT22;46902;52.920;6.536;2023-07-08T06:38:58;20.20;89.40
61016;DHT22;46902;52.920;6.536;2023-07-08T06:41:24;20.30;89.20
61016;DHT22;46902;52.920;6.536;2023-07-08T06:43:50;20.40;88.50
61016;DHT22;46902;52.920;6.536;2023-07-08T06:46:16;20.50;88.10
61016;DHT22;46902;52.920;6.536;2023-07-08T06:48:41;20.50;88.20
61016;DHT22;46902;52.920;6.536;2023-07-08T06:51:07;20.60;87.60
61016;DHT22;46902;52.920;6.536;2023-07-08T06:53:33;20.80;87.40
61016;DHT22;46902;52.920;6.536;2023-07-08T06:55:58;20.80;86.60
61016;DHT22;46902;52.920;6.536;2023-07-08T06:58:24;20.90;86.60
61016;DHT22;46902;52.920;6.536;2023-07-08T07:00:50;20.90;85.50
61016;DHT22;46902;52.920;6.536;2023-07-08T07:03:15;21.00;86.10
61016;DHT22;46902;52.920;6.536;2023-07-08T07:05:42;21.10;85.40
61016;DHT22;46902;52.920;6.536;2023-07-08T07:08:08;21.20;85.20
61016;DHT22;46902;52.920;6.536;2023-07-08T07:10:34;21.30;85.80
61016;DHT22;46902;52.920;6.536;2023-07-08T07:13:00;21.30;84.70
61016;DHT22;46902;52.920;6.536;2023-07-08T07:15:25;21.40;84.70
61016;DHT22;46902;52.920;6.536;2023-07-08T07:17:51;21.50;84.70
61016;DHT22;46902;52.920;6.536;2023-07-08T07:20:16;21.60;84.10
61016;DHT22;46902;52.920;6.536;2023-07-08T07:22:42;21.80;83.80
61016;DHT22;46902;52.920;6.536;2023-07-08T07:25:08;21.90;83.40
61016;DHT22;46902;52.920;6.536;2023-07-08T07:27:33;22.00;82.40
61016;DHT22;46902;52.920;6.536;2023-07-08T07:29:59;22.10;82.20
61016;DHT22;46902;52.920;6.536;2023-07-08T07:32:25;22.20;81.50
61016;DHT22;46902;52.920;6.536;2023-07-08T07:34:51;22.30;81.10
61016;DHT22;46902;52.920;6.536;2023-07-08T07:37:19;22.40;80.70
61016;DHT22;46902;52.920;6.536;2023-07-08T07:39:45;22.50;79.80
61016;DHT22;46902;52.920;6.536;2023-07-08T07:42:12;22.60;79.20
61016;DHT22;46902;52.920;6.536;2023-07-08T07:44:38;22.70;79.10
61016;DHT22;46902;52.920;6.536;2023-07-08T07:47:09;22.80;78.70
61016;DHT22;46902;52.920;6.536;2023-07-08T07:49:35;22.90;78.90
61016;DHT22;46902;52.920;6.536;2023-07-08T07:52:02;23.00;78.70
61016;DHT22;46902;52.920;6.536;2023-07-08T07:54:27;23.20;78.30
61016;DHT22;46902;52.920;6.536;2023-07-08T07:56:53;23.40;77.20
61016;DHT22;46902;52.920;6.536;2023-07-08T07:59:19;23.50;76.20
61016;DHT22;46902;52.920;6.536;2023-07-08T08:01:44;23.60;75.60
61016;DHT22;46902;52.920;6.536;2023-07-08T08:04:10;23.70;74.90
61016;DHT22;46902;52.920;6.536;2023-07-08T08:06:37;23.80;74.20
61016;DHT22;46902;52.920;6.536;2023-07-08T08:09:03;24.00;73.80
61016;DHT22;46902;52.920;6.536;2023-07-08T08:11:29;24.10;73.30
61016;DHT22;46902;52.920;6.536;2023-07-08T08:13:55;24.20;73.60
61016;DHT22;46902;52.920;6.536;2023-07-08T08:16:22;24.30;73.70
61016;DHT22;46902;52.920;6.536;2023-07-08T08:18:48;24.40;72.40
61016;DHT22;46902;52.920;6.536;2023-07-08T08:21:13;24.50;72.20
61016;DHT22;46902;52.920;6.536;2023-07-08T08:23:39;24.70;71.80
61016;DHT22;46902;52.920;6.536;2023-07-08T08:26:05;24.80;71.50
61016;DHT22;46902;52.920;6.536;2023-07-08T08:28:30;24.90;70.80
61016;DHT22;46902;52.920;6.536;2023-07-08T08:30:56;25.00;70.20
61016;DHT22;46902;52.920;6.536;2023-07-08T08:33:22;25.10;70.70
61016;DHT22;46902;52.920;6.536;2023-07-08T08:35:48;25.20;70.10
61016;DHT22;46902;52.920;6.536;2023-07-08T08:38:13;25.30;70.10
61016;DHT22;46902;52.920;6.536;2023-07-08T08:40:41;25.40;69.70
61016;DHT22;46902;52.920;6.536;2023-07-08T08:43:15;25.50;69.30
61016;DHT22;46902;52.920;6.536;2023-07-08T08:45:59;25.60;69.70
61016;DHT22;46902;52.920;6.536;2023-07-08T08:48:27;25.80;69.20
61016;DHT22;46902;52.920;6.536;2023-07-08T08:50:58;25.90;69.10
61016;DHT22;46902;52.920;6.536;2023-07-08T08:53:26;26.00;68.20
61016;DHT22;46902;52.920;6.536;2023-07-08T08:56:04;26.10;67.70
61016;DHT22;46902;52.920;6.536;2023-07-08T09:01:11;26.50;66.90
61016;DHT22;46902;52.920;6.536;2023-07-08T09:06:11;26.70;67.10
61016;DHT22;46902;52.920;6.536;2023-07-08T09:08:37;26.90;67.30
61016;DHT22;46902;52.920;6.536;2023-07-08T09:13:49;27.00;65.30
61016;DHT22;46902;52.920;6.536;2023-07-08T09:16:47;27.20;65.50
61016;DHT22;46902;52.920;6.536;2023-07-08T09:19:24;27.30;66.00
61016;DHT22;46902;52.920;6.536;2023-07-08T09:22:01;27.50;65.40
61016;DHT22;46902;52.920;6.536;2023-07-08T09:27:13;27.80;64.30
61016;DHT22;46902;52.920;6.536;2023-07-08T09:29:38;27.90;65.00
61016;DHT22;46902;52.920;6.536;2023-07-08T09:32:24;27.90;65.30
61016;DHT22;46902;52.920;6.536;2023-07-08T09:34:53;28.00;64.40
61016;DHT22;46902;52.920;6.536;2023-07-08T09:37:39;28.10;63.60
61016;DHT22;46902;52.920;6.536;2023-07-08T09:42:49;28.40;62.80
61016;DHT22;46902;52.920;6.536;2023-07-08T09:45:18;28.50;62.50
61016;DHT22;46902;52.920;6.536;2023-07-08T09:47:45;28.50;62.90
61016;DHT22;46902;52.920;6.536;2023-07-08T09:50:21;28.70;62.90
61016;DHT22;46902;52.920;6.536;2023-07-08T09:52:49;28.90;62.50
61016;DHT22;46902;52.920;6.536;2023-07-08T09:55:17;28.90;61.30
61016;DHT22;46902;52.920;6.536;2023-07-08T09:57:45;29.00;61.00
61016;DHT22;46902;52.920;6.536;2023-07-08T10:00:14;29.10;61.40
61016;DHT22;46902;52.920;6.536;2023-07-08T10:02:45;29.20;60.60
61016;DHT22;46902;52.920;6.536;2023-07-08T10:05:39;29.30;62.20
61016;DHT22;46902;52.920;6.536;2023-07-08T10:08:17;29.40;62.00
61016;DHT22;46902;52.920;6.536;2023-07-08T10:10:44;29.50;62.20
61016;DHT22;46902;52.920;6.536;2023-07-08T10:13:40;29.60;61.20
61016;DHT22;46902;52.920;6.536;2023-07-08T10:16:24;29.70;61.40
61016;DHT22;46902;52.920;6.536;2023-07-08T10:18:51;29.80;61.10
61016;DHT22;46902;52.920;6.536;2023-07-08T10:26:37;30.20;58.40
61016;DHT22;46902;52.920;6.536;2023-07-08T10:32:07;30.40;58.70
61016;DHT22;46902;52.920;6.536;2023-07-08T10:35:04;30.50;57.70
61016;DHT22;46902;52.920;6.536;2023-07-08T10:45:53;31.00;57.10
61016;DHT22;46902;52.920;6.536;2023-07-08T10:56:21;31.60;54.40
61016;DHT22;46902;52.920;6.536;2023-07-08T10:59:11;31.50;53.70
61016;DHT22;46902;52.920;6.536;2023-07-08T11:04:37;31.70;54.50
61016;DHT22;46902;52.920;6.536;2023-07-08T11:09:52;32.00;53.90
61016;DHT22;46902;52.920;6.536;2023-07-08T11:12:28;32.10;53.30
61016;DHT22;46902;52.920;6.536;2023-07-08T11:15:04;32.20;53.80
61016;DHT22;46902;52.920;6.536;2023-07-08T11:17:45;32.30;53.20
61016;DHT22;46902;52.920;6.536;2023-07-08T11:20:20;32.50;51.80
61016;DHT22;46902;52.920;6.536;2023-07-08T11:22:57;32.60;52.10
61016;DHT22;46902;52.920;6.536;2023-07-08T11:25:27;32.80;51.60
61016;DHT22;46902;52.920;6.536;2023-07-08T11:27:56;32.90;49.50
61016;DHT22;46902;52.920;6.536;2023-07-08T11:30:24;32.90;49.20
61016;DHT22;46902;52.920;6.536;2023-07-08T11:33:00;33.00;49.30
61016;DHT22;46902;52.920;6.536;2023-07-08T11:38:06;33.10;47.10
61016;DHT22;46902;52.920;6.536;2023-07-08T11:40:50;33.20;47.70
61016;DHT22;46902;52.920;6.536;2023-07-08T11:43:16;33.20;47.20
61016;DHT22;46902;52.920;6.536;2023-07-08T11:45:43;33.20;47.60
61016;DHT22;46902;52.920;6.536;2023-07-08T11:48:27;33.30;46.70
61016;DHT22;46902;52.920;6.536;2023-07-08T11:50:54;33.40;46.50
61016;DHT22;46902;52.920;6.536;2023-07-08T11:56:23;33.50;47.80
61016;DHT22;46902;52.920;6.536;2023-07-08T12:01:30;33.50;46.70
61016;DHT22;46902;52.920;6.536;2023-07-08T12:04:29;33.70;48.40
61016;DHT22;46902;52.920;6.536;2023-07-08T12:09:36;34.00;44.40
61016;DHT22;46902;52.920;6.536;2023-07-08T12:12:06;34.10;45.40
61016;DHT22;46902;52.920;6.536;2023-07-08T12:14:32;34.10;44.10
61016;DHT22;46902;52.920;6.536;2023-07-08T12:16:58;34.20;43.80
61016;DHT22;46902;52.920;6.536;2023-07-08T12:19:27;34.30;45.70
61016;DHT22;46902;52.920;6.536;2023-07-08T12:21:54;34.30;43.60
61016;DHT22;46902;52.920;6.536;2023-07-08T12:24:21;34.50;44.00
61016;DHT22;46902;52.920;6.536;2023-07-08T12:26:52;34.70;44.70
61016;DHT22;46902;52.920;6.536;2023-07-08T12:29:17;34.80;43.50
61016;DHT22;46902;52.920;6.536;2023-07-08T12:31:43;34.90;43.50
61016;DHT22;46902;52.920;6.536;2023-07-08T12:34:14;34.80;41.60
61016;DHT22;46902;52.920;6.536;2023-07-08T12:36:42;34.90;41.80
61016;DHT22;46902;52.920;6.536;2023-07-08T12:39:11;34.80;41.70
61016;DHT22;46902;52.920;6.536;2023-07-08T12:41:41;34.90;41.70
61016;DHT22;46902;52.920;6.536;2023-07-08T12:44:26;34.90;42.20
61016;DHT22;46902;52.920;6.536;2023-07-08T12:46:54;35.00;43.20
61016;DHT22;46902;52.920;6.536;2023-07-08T12:49:20;34.90;42.30
61016;DHT22;46902;52.920;6.536;2023-07-08T12:51:47;34.90;41.90
61016;DHT22;46902;52.920;6.536;2023-07-08T12:54:13;35.00;42.40
61016;DHT22;46902;52.920;6.536;2023-07-08T12:56:43;35.10;42.30
61016;DHT22;46902;52.920;6.536;2023-07-08T12:59:14;35.20;40.90
61016;DHT22;46902;52.920;6.536;2023-07-08T13:01:42;35.10;40.80
61016;DHT22;46902;52.920;6.536;2023-07-08T13:04:11;35.20;41.50
61016;DHT22;46902;52.920;6.536;2023-07-08T13:06:38;35.30;41.20
61016;DHT22;46902;52.920;6.536;2023-07-08T13:09:23;35.20;40.70
61016;DHT22;46902;52.920;6.536;2023-07-08T13:11:50;35.20;41.20
61016;DHT22;46902;52.920;6.536;2023-07-08T13:14:19;35.30;40.80
61016;DHT22;46902;52.920;6.536;2023-07-08T13:16:45;35.30;41.60
61016;DHT22;46902;52.920;6.536;2023-07-08T13:19:12;35.30;40.20
61016;DHT22;46902;52.920;6.536;2023-07-08T13:21:38;35.40;40.30
61016;DHT22;46902;52.920;6.536;2023-07-08T13:24:09;35.50;40.50
61016;DHT22;46902;52.920;6.536;2023-07-08T13:26:36;35.50;41.50
61016;DHT22;46902;52.920;6.536;2023-07-08T13:29:11;35.60;41.70
61016;DHT22;46902;52.920;6.536;2023-07-08T13:31:39;35.70;40.90
61016;DHT22;46902;52.920;6.536;2023-07-08T13:34:13;35.60;41.50
61016;DHT22;46902;52.920;6.536;2023-07-08T13:36:42;35.60;40.80
61016;DHT22;46902;52.920;6.536;2023-07-08T13:39:13;35.60;41.80
61016;DHT22;46902;52.920;6.536;2023-07-08T13:41:43;35.60;42.20
61016;DHT22;46902;52.920;6.536;2023-07-08T13:44:09;35.70;40.80
61016;DHT22;46902;52.920;6.536;2023-07-08T13:46:37;35.80;40.80
61016;DHT22;46902;52.920;6.536;2023-07-08T13:49:16;35.70;40.90
61016;DHT22;46902;52.920;6.536;2023-07-08T13:51:44;35.70;41.60
61016;DHT22;46902;52.920;6.536;2023-07-08T13:54:24;35.80;40.50
61016;DHT22;46902;52.920;6.536;2023-07-08T13:56:51;35.80;39.80
61016;DHT22;46902;52.920;6.536;2023-07-08T13:59:24;35.70;41.90
61016;DHT22;46902;52.920;6.536;2023-07-08T14:01:52;35.80;41.30
61016;DHT22;46902;52.920;6.536;2023-07-08T14:04:21;35.80;40.20
61016;DHT22;46902;52.920;6.536;2023-07-08T14:06:48;35.80;40.30
61016;DHT22;46902;52.920;6.536;2023-07-08T14:09:17;35.80;40.30
61016;DHT22;46902;52.920;6.536;2023-07-08T14:11:44;35.90;40.50
61016;DHT22;46902;52.920;6.536;2023-07-08T14:14:10;35.90;39.50
61016;DHT22;46902;52.920;6.536;2023-07-08T14:16:41;35.90;39.30
61016;DHT22;46902;52.920;6.536;2023-07-08T14:19:21;35.90;39.70
61016;DHT22;46902;52.920;6.536;2023-07-08T14:21:54;35.90;39.90
61016;DHT22;46902;52.920;6.536;2023-07-08T14:24:20;35.90;40.60
61016;DHT22;46902;52.920;6.536;2023-07-08T14:26:45;35.90;40.40
61016;DHT22;46902;52.920;6.536;2023-07-08T14:29:11;35.90;40.50
61016;DHT22;46902;52.920;6.536;2023-07-08T14:31:39;35.80;39.80
61016;DHT22;46902;52.920;6.536;2023-07-08T14:34:11;35.80;40.50
61016;DHT22;46902;52.920;6.536;2023-07-08T14:36:37;35.70;39.60
61016;DHT22;46902;52.920;6.536;2023-07-08T14:39:12;35.70;40.90
61016;DHT22;46902;52.920;6.536;2023-07-08T14:41:38;35.60;40.80
61016;DHT22;46902;52.920;6.536;2023-07-08T14:46:45;35.70;41.00
61016;DHT22;46902;52.920;6.536;2023-07-08T14:49:22;35.70;39.00
61016;DHT22;46902;52.920;6.536;2023-07-08T14:51:48;35.70;39.50
61016;DHT22;46902;52.920;6.536;2023-07-08T14:54:14;35.60;39.40
61016;DHT22;46902;52.920;6.536;2023-07-08T14:56:41;35.60;39.90
61016;DHT22;46902;52.920;6.536;2023-07-08T14:59:12;35.50;40.20
61016;DHT22;46902;52.920;6.536;2023-07-08T15:01:39;35.60;41.40
61016;DHT22;46902;52.920;6.536;2023-07-08T15:04:12;35.60;41.00
61016;DHT22;46902;52.920;6.536;2023-07-08T15:06:38;35.60;39.30
61016;DHT22;46902;52.920;6.536;2023-07-08T15:09:03;35.50;39.60
61016;DHT22;46902;52.920;6.536;2023-07-08T15:11:31;35.50;39.80
61016;DHT22;46902;52.920;6.536;2023-07-08T15:13:57;35.40;40.00
61016;DHT22;46902;52.920;6.536;2023-07-08T15:16:22;35.50;40.60
61016;DHT22;46902;52.920;6.536;2023-07-08T15:18:48;35.50;40.20
61016;DHT22;46902;52.920;6.536;2023-07-08T15:21:15;35.50;40.60
61016;DHT22;46902;52.920;6.536;2023-07-08T15:23:41;35.50;39.90
61016;DHT22;46902;52.920;6.536;2023-07-08T15:26:12;35.50;40.10
61016;DHT22;46902;52.920;6.536;2023-07-08T15:28:46;35.50;40.30
61016;DHT22;46902;52.920;6.536;2023-07-08T15:31:24;35.40;40.90
61016;DHT22;46902;52.920;6.536;2023-07-08T15:33:51;35.50;40.60
61016;DHT22;46902;52.920;6.536;2023-07-08T15:36:17;35.50;40.30
61016;DHT22;46902;52.920;6.536;2023-07-08T15:38:43;35.50;40.10
61016;DHT22;46902;52.920;6.536;2023-07-08T15:41:26;35.50;40.30
61016;DHT22;46902;52.920;6.536;2023-07-08T15:43:56;35.50;39.60
61016;DHT22;46902;52.920;6.536;2023-07-08T15:46:22;35.50;40.90
61016;DHT22;46902;52.920;6.536;2023-07-08T15:48:51;35.50;40.90
61016;DHT22;46902;52.920;6.536;2023-07-08T15:51:17;35.40;40.10
61016;DHT22;46902;52.920;6.536;2023-07-08T15:53:44;35.40;40.90
61016;DHT22;46902;52.920;6.536;2023-07-08T15:56:15;35.30;39.50
61016;DHT22;46902;52.920;6.536;2023-07-08T15:58:42;35.40;41.10
61016;DHT22;46902;52.920;6.536;2023-07-08T16:01:21;35.40;40.80
61016;DHT22;46902;52.920;6.536;2023-07-08T16:03:47;35.40;40.00
61016;DHT22;46902;52.920;6.536;2023-07-08T16:06:14;35.40;39.70
61016;DHT22;46902;52.920;6.536;2023-07-08T16:08:39;35.30;38.50
61016;DHT22;46902;52.920;6.536;2023-07-08T16:11:12;35.30;38.60
61016;DHT22;46902;52.920;6.536;2023-07-08T16:13:39;35.30;38.30
61016;DHT22;46902;52.920;6.536;2023-07-08T16:16:06;35.20;38.90
61016;DHT22;46902;52.920;6.536;2023-07-08T16:18:33;35.20;38.50
61016;DHT22;46902;52.920;6.536;2023-07-08T16:20:59;35.20;39.60
61016;DHT22;46902;52.920;6.536;2023-07-08T16:23:24;35.20;39.50
61016;DHT22;46902;52.920;6.536;2023-07-08T16:25:51;35.20;40.00
61016;DHT22;46902;52.920;6.536;2023-07-08T16:28:42;35.20;40.40
61016;DHT22;46902;52.920;6.536;2023-07-08T16:31:19;35.20;39.90
61016;DHT22;46902;52.920;6.536;2023-07-08T16:33:46;35.20;39.40
61016;DHT22;46902;52.920;6.536;2023-07-08T16:36:16;35.10;39.30
61016;DHT22;46902;52.920;6.536;2023-07-08T16:38:42;35.10;38.80
61016;DHT22;46902;52.920;6.536;2023-07-08T16:41:15;35.00;39.40
61016;DHT22;46902;52.920;6.536;2023-07-08T16:43:42;35.00;39.40
61016;DHT22;46902;52.920;6.536;2023-07-08T16:46:09;34.90;38.60